sensor_id;sensor_type;location;lat;lon;timestamp;P1;durP1;ratioP1;P2;durP2;ratioP2
22026;SDS011;11177;50.966;10.070;2023-04-01T00:01:03;4.30;;;1.40;;
22026;SDS011;11177;50.966;10.070;2023-04-01T00:03:31;6.28;;;1.20;;
22026;SDS011;11177;50.966;10.070;2023-04-01T00:06:00;3.42;;;1.20;;
22026;SDS011;11177;50.966;10.070;2023-04-01T00:08:27;5.00;;;1.10;;
22026;SDS011;11177;50.966;10.070;2023-04-01T00:10:54;4.15;;;1.20;;
22026;SDS011;11177;50.966;10.070;2023-04-01T00:13:24;7.22;;;1.30;;
22026;SDS011;11177;50.966;10.070;2023-04-01T00:15:53;5.18;;;1.10;;
22026;SDS011;11177;50.966;10.070;2023-04-01T00:18:21;4.35;;;1.30;;
22026;SDS011;11177;50.966;10.070;2023-04-01T00:20:49;4.03;;;1.08;;
22026;SDS011;11177;50.966;10.070;2023-04-01T00:23:17;3.65;;;0.93;;
22026;SDS011;11177;50.966;10.070;2023-04-01T00:25:45;4.25;;;1.10;;
22026;SDS011;11177;50.966;10.070;2023-04-01T00:28:18;5.07;;;1.30;;
22026;SDS011;11177;50.966;10.070;2023-04-01T00:30:45;9.43;;;1.20;;
22026;SDS011;11177;50.966;10.070;2023-04-01T00:33:13;4.28;;;1.15;;
22026;SDS011;11177;50.966;10.070;2023-04-01T00:35:40;4.78;;;1.20;;
22026;SDS011;11177;50.966;10.070;2023-04-01T00:38:08;5.15;;;1.40;;
22026;SDS011;11177;50.966;10.070;2023-04-01T00:40:39;4.63;;;1.30;;
22026;SDS011;11177;50.966;10.070;2023-04-01T00:43:15;5.15;;;1.40;;
22026;SDS011;11177;50.966;10.070;2023-04-01T00:45:45;3.08;;;1.27;;
22026;SDS011;11177;50.966;10.070;2023-04-01T00:48:15;6.00;;;1.58;;
22026;SDS011;11177;50.966;10.070;2023-04-01T00:50:45;3.53;;;1.20;;
22026;SDS011;11177;50.966;10.070;2023-04-01T00:53:16;4.35;;;1.20;;
22026;SDS011;11177;50.966;10.070;2023-04-01T00:55:46;3.70;;;1.27;;
22026;SDS011;11177;50.966;10.070;2023-04-01T00:58:20;6.20;;;1.23;;
22026;SDS011;11177;50.966;10.070;2023-04-01T01:00:48;4.07;;;1.40;;
22026;SDS011;11177;50.966;10.070;2023-04-01T01:03:15;3.95;;;1.15;;
22026;SDS011;11177;50.966;10.070;2023-04-01T01:05:58;3.70;;;1.27;;
22026;SDS011;11177;50.966;10.070;2023-04-01T01:08:47;6.95;;;1.23;;
22026;SDS011;11177;50.966;10.070;2023-04-01T01:11:35;4.70;;;1.33;;
22026;SDS011;11177;50.966;10.070;2023-04-01T01:17:25;5.05;;;1.40;;
22026;SDS011;11177;50.966;10.070;2023-04-01T01:26:58;5.95;;;1.88;;
22026;SDS011;11177;50.966;10.070;2023-04-01T01:30:05;7.78;;;1.83;;
22026;SDS011;11177;50.966;10.070;2023-04-01T01:35:35;4.15;;;1.60;;
22026;SDS011;11177;50.966;10.070;2023-04-01T01:38:13;4.38;;;1.42;;
22026;SDS011;11177;50.966;10.070;2023-04-01T01:40:42;5.70;;;1.90;;
22026;SDS011;11177;50.966;10.070;2023-04-01T01:43:12;7.53;;;1.90;;
22026;SDS011;11177;50.966;10.070;2023-04-01T01:45:46;9.85;;;2.40;;
22026;SDS011;11177;50.966;10.070;2023-04-01T01:48:15;4.78;;;2.20;;
22026;SDS011;11177;50.966;10.070;2023-04-01T01:50:43;8.88;;;2.35;;
22026;SDS011;11177;50.966;10.070;2023-04-01T01:53:12;12.43;;;2.40;;
22026;SDS011;11177;50.966;10.070;2023-04-01T01:55:40;8.98;;;2.90;;
22026;SDS011;11177;50.966;10.070;2023-04-01T01:58:47;10.30;;;2.42;;
22026;SDS011;11177;50.966;10.070;2023-04-01T02:01:43;9.48;;;2.30;;
22026;SDS011;11177;50.966;10.070;2023-04-01T02:04:03;8.35;;;2.22;;
22026;SDS011;11177;50.966;10.070;2023-04-01T02:06:32;12.05;;;2.63;;
22026;SDS011;11177;50.966;10.070;2023-04-01T02:09:08;7.80;;;2.80;;
22026;SDS011;11177;50.966;10.070;2023-04-01T02:11:41;10.50;;;2.83;;
22026;SDS011;11177;50.966;10.070;2023-04-01T02:14:16;9.02;;;3.10;;
22026;SDS011;11177;50.966;10.070;2023-04-01T02:16:57;6.20;;;2.42;;
22026;SDS011;11177;50.966;10.070;2023-04-01T02:19:28;6.05;;;1.83;;
22026;SDS011;11177;50.966;10.070;2023-04-01T02:21:59;4.15;;;1.40;;
22026;SDS011;11177;50.966;10.070;2023-04-01T02:24:28;4.57;;;1.50;;
22026;SDS011;11177;50.966;10.070;2023-04-01T02:26:57;4.03;;;1.27;;
22026;SDS011;11177;50.966;10.070;2023-04-01T02:29:24;4.90;;;1.40;;
22026;SDS011;11177;50.966;10.070;2023-04-01T02:31:52;3.95;;;1.20;;
22026;SDS011;11177;50.966;10.070;2023-04-01T02:34:20;5.22;;;1.50;;
22026;SDS011;11177;50.966;10.070;2023-04-01T02:36:49;4.10;;;1.30;;
22026;SDS011;11177;50.966;10.070;2023-04-01T02:39:16;4.80;;;1.52;;
22026;SDS011;11177;50.966;10.070;2023-04-01T02:41:44;5.05;;;1.30;;
22026;SDS011;11177;50.966;10.070;2023-04-01T02:44:12;4.40;;;1.30;;
22026;SDS011;11177;50.966;10.070;2023-04-01T02:46:41;6.15;;;1.50;;
22026;SDS011;11177;50.966;10.070;2023-04-01T02:49:08;6.75;;;1.50;;
22026;SDS011;11177;50.966;10.070;2023-04-01T02:51:35;5.47;;;1.40;;
22026;SDS011;11177;50.966;10.070;2023-04-01T02:54:01;4.57;;;1.30;;
22026;SDS011;11177;50.966;10.070;2023-04-01T02:56:28;4.05;;;1.38;;
22026;SDS011;11177;50.966;10.070;2023-04-01T02:58:55;5.10;;;1.40;;
22026;SDS011;11177;50.966;10.070;2023-04-01T03:01:22;5.03;;;1.40;;
22026;SDS011;11177;50.966;10.070;2023-04-01T03:03:49;6.57;;;2.03;;
22026;SDS011;11177;50.966;10.070;2023-04-01T03:06:16;4.00;;;1.88;;
22026;SDS011;11177;50.966;10.070;2023-04-01T03:08:43;5.00;;;1.88;;
22026;SDS011;11177;50.966;10.070;2023-04-01T03:11:11;4.28;;;1.58;;
22026;SDS011;11177;50.966;10.070;2023-04-01T03:13:38;6.15;;;2.03;;
22026;SDS011;11177;50.966;10.070;2023-04-01T03:16:05;3.15;;;1.50;;
22026;SDS011;11177;50.966;10.070;2023-04-01T03:18:32;6.07;;;2.20;;
22026;SDS011;11177;50.966;10.070;2023-04-01T03:21:19;5.82;;;2.30;;
22026;SDS011;11177;50.966;10.070;2023-04-01T03:23:47;4.68;;;2.47;;
22026;SDS011;11177;50.966;10.070;2023-04-01T03:26:14;7.28;;;2.78;;
22026;SDS011;11177;50.966;10.070;2023-04-01T03:28:42;5.50;;;2.28;;
22026;SDS011;11177;50.966;10.070;2023-04-01T03:31:09;4.07;;;1.77;;
22026;SDS011;11177;50.966;10.070;2023-04-01T03:33:36;3.60;;;1.73;;
22026;SDS011;11177;50.966;10.070;2023-04-01T03:36:03;5.80;;;1.80;;
22026;SDS011;11177;50.966;10.070;2023-04-01T03:38:33;6.40;;;1.40;;
22026;SDS011;11177;50.966;10.070;2023-04-01T03:41:01;5.03;;;1.13;;
22026;SDS011;11177;50.966;10.070;2023-04-01T03:43:28;5.25;;;1.40;;
22026;SDS011;11177;50.966;10.070;2023-04-01T03:45:55;2.90;;;1.30;;
22026;SDS011;11177;50.966;10.070;2023-04-01T03:48:24;4.05;;;1.40;;
22026;SDS011;11177;50.966;10.070;2023-04-01T03:50:52;6.45;;;1.48;;
22026;SDS011;11177;50.966;10.070;2023-04-01T03:53:19;2.17;;;1.00;;
22026;SDS011;11177;50.966;10.070;2023-04-01T03:55:46;3.70;;;0.98;;
22026;SDS011;11177;50.966;10.070;2023-04-01T03:58:13;3.35;;;1.20;;
22026;SDS011;11177;50.966;10.070;2023-04-01T04:00:40;4.25;;;1.23;;
22026;SDS011;11177;50.966;10.070;2023-04-01T04:03:07;5.57;;;1.20;;
22026;SDS011;11177;50.966;10.070;2023-04-01T04:05:34;2.88;;;1.00;;
22026;SDS011;11177;50.966;10.070;2023-04-01T04:08:01;2.80;;;1.10;;
22026;SDS011;11177;50.966;10.070;2023-04-01T04:10:28;6.53;;;1.20;;
22026;SDS011;11177;50.966;10.070;2023-04-01T04:12:55;2.47;;;1.10;;
22026;SDS011;11177;50.966;10.070;2023-04-01T04:15:22;2.20;;;0.95;;
22026;SDS011;11177;50.966;10.070;2023-04-01T04:17:49;2.80;;;1.00;;
22026;SDS011;11177;50.966;10.070;2023-04-01T04:20:16;6.43;;;1.20;;
22026;SDS011;11177;50.966;10.070;2023-04-01T04:22:42;5.50;;;1.35;;
22026;SDS011;11177;50.966;10.070;2023-04-01T04:25:09;3.50;;;1.30;;
22026;SDS011;11177;50.966;10.070;2023-04-01T04:27:36;4.47;;;1.20;;
22026;SDS011;11177;50.966;10.070;2023-04-01T04:30:03;3.30;;;1.40;;
22026;SDS011;11177;50.966;10.070;2023-04-01T04:32:31;7.18;;;1.60;;
22026;SDS011;11177;50.966;10.070;2023-04-01T04:34:58;8.00;;;1.88;;
22026;SDS011;11177;50.966;10.070;2023-04-01T04:37:25;6.53;;;1.60;;
22026;SDS011;11177;50.966;10.070;2023-04-01T04:39:52;7.00;;;1.67;;
22026;SDS011;11177;50.966;10.070;2023-04-01T04:42:19;6.18;;;1.85;;
22026;SDS011;11177;50.966;10.070;2023-04-01T04:44:45;7.25;;;1.77;;
22026;SDS011;11177;50.966;10.070;2023-04-01T04:47:12;6.45;;;1.88;;
22026;SDS011;11177;50.966;10.070;2023-04-01T04:49:39;8.65;;;1.55;;
22026;SDS011;11177;50.966;10.070;2023-04-01T04:52:06;7.88;;;1.50;;
22026;SDS011;11177;50.966;10.070;2023-04-01T04:54:33;6.25;;;1.77;;
22026;SDS011;11177;50.966;10.070;2023-04-01T04:57:00;6.03;;;1.40;;
22026;SDS011;11177;50.966;10.070;2023-04-01T04:59:26;3.88;;;1.10;;
22026;SDS011;11177;50.966;10.070;2023-04-01T05:01:53;6.32;;;1.38;;
22026;SDS011;11177;50.966;10.070;2023-04-01T05:04:20;5.95;;;1.30;;
22026;SDS011;11177;50.966;10.070;2023-04-01T05:06:47;5.32;;;1.20;;
22026;SDS011;11177;50.966;10.070;2023-04-01T05:09:14;5.78;;;1.40;;
22026;SDS011;11177;50.966;10.070;2023-04-01T05:11:41;5.10;;;1.58;;
22026;SDS011;11177;50.966;10.070;2023-04-01T05:14:12;3.30;;;1.10;;
22026;SDS011;11177;50.966;10.070;2023-04-01T05:16:39;4.20;;;1.30;;
22026;SDS011;11177;50.966;10.070;2023-04-01T05:19:06;4.50;;;1.58;;
22026;SDS011;11177;50.966;10.070;2023-04-01T05:21:33;3.97;;;1.45;;
22026;SDS011;11177;50.966;10.070;2023-04-01T05:24:00;5.30;;;1.40;;
22026;SDS011;11177;50.966;10.070;2023-04-01T05:26:26;6.30;;;1.50;;
22026;SDS011;11177;50.966;10.070;2023-04-01T05:28:53;3.47;;;0.98;;
22026;SDS011;11177;50.966;10.070;2023-04-01T05:31:20;4.90;;;1.30;;
22026;SDS011;11177;50.966;10.070;2023-04-01T05:33:47;5.32;;;1.13;;
22026;SDS011;11177;50.966;10.070;2023-04-01T05:36:14;4.10;;;1.10;;
22026;SDS011;11177;50.966;10.070;2023-04-01T05:38:42;4.10;;;1.10;;
22026;SDS011;11177;50.966;10.070;2023-04-01T05:41:10;3.58;;;0.90;;
22026;SDS011;11177;50.966;10.070;2023-04-01T05:43:37;3.58;;;1.33;;
22026;SDS011;11177;50.966;10.070;2023-04-01T05:46:04;5.82;;;1.42;;
22026;SDS011;11177;50.966;10.070;2023-04-01T05:48:31;3.40;;;1.63;;
22026;SDS011;11177;50.966;10.070;2023-04-01T05:50:59;5.65;;;1.48;;
22026;SDS011;11177;50.966;10.070;2023-04-01T05:53:26;7.18;;;1.70;;
22026;SDS011;11177;50.966;10.070;2023-04-01T05:55:53;5.57;;;1.50;;
22026;SDS011;11177;50.966;10.070;2023-04-01T05:58:19;10.65;;;1.80;;
22026;SDS011;11177;50.966;10.070;2023-04-01T06:00:46;4.90;;;1.80;;
22026;SDS011;11177;50.966;10.070;2023-04-01T06:03:13;5.72;;;1.50;;
22026;SDS011;11177;50.966;10.070;2023-04-01T06:05:41;5.82;;;1.63;;
22026;SDS011;11177;50.966;10.070;2023-04-01T06:08:10;5.20;;;1.42;;
22026;SDS011;11177;50.966;10.070;2023-04-01T06:13:48;6.28;;;1.33;;
22026;SDS011;11177;50.966;10.070;2023-04-01T06:26:00;12.18;;;2.25;;
22026;SDS011;11177;50.966;10.070;2023-04-01T06:31:35;7.28;;;1.50;;
22026;SDS011;11177;50.966;10.070;2023-04-01T06:44:16;6.03;;;1.35;;
22026;SDS011;11177;50.966;10.070;2023-04-01T06:47:17;2.28;;;1.10;;
22026;SDS011;11177;50.966;10.070;2023-04-01T06:49:55;2.10;;;0.95;;
22026;SDS011;11177;50.966;10.070;2023-04-01T06:52:46;3.97;;;1.00;;
22026;SDS011;11177;50.966;10.070;2023-04-01T06:55:26;4.57;;;1.10;;
22026;SDS011;11177;50.966;10.070;2023-04-01T06:57:56;5.57;;;1.20;;
22026;SDS011;11177;50.966;10.070;2023-04-01T07:00:31;4.03;;;1.30;;
22026;SDS011;11177;50.966;10.070;2023-04-01T07:05:37;4.40;;;1.50;;
22026;SDS011;11177;50.966;10.070;2023-04-01T07:08:04;3.88;;;1.35;;
22026;SDS011;11177;50.966;10.070;2023-04-01T07:10:41;4.28;;;1.40;;
22026;SDS011;11177;50.966;10.070;2023-04-01T07:13:14;4.15;;;1.48;;
22026;SDS011;11177;50.966;10.070;2023-04-01T07:15:49;5.03;;;1.70;;
22026;SDS011;11177;50.966;10.070;2023-04-01T07:18:25;6.82;;;1.80;;
22026;SDS011;11177;50.966;10.070;2023-04-01T07:20:57;6.53;;;1.50;;
22026;SDS011;11177;50.966;10.070;2023-04-01T07:23:25;7.15;;;1.70;;
22026;SDS011;11177;50.966;10.070;2023-04-01T07:25:55;4.75;;;1.40;;
22026;SDS011;11177;50.966;10.070;2023-04-01T07:28:29;5.53;;;1.43;;
22026;SDS011;11177;50.966;10.070;2023-04-01T07:33:51;2.85;;;1.00;;
22026;SDS011;11177;50.966;10.070;2023-04-01T07:39:27;4.53;;;1.25;;
22026;SDS011;11177;50.966;10.070;2023-04-01T07:48:05;4.32;;;0.90;;
22026;SDS011;11177;50.966;10.070;2023-04-01T07:56:26;3.17;;;1.00;;
22026;SDS011;11177;50.966;10.070;2023-04-01T07:59:12;4.60;;;0.90;;
22026;SDS011;11177;50.966;10.070;2023-04-01T08:07:36;2.25;;;1.20;;
22026;SDS011;11177;50.966;10.070;2023-04-01T08:10:24;3.25;;;1.10;;
22026;SDS011;11177;50.966;10.070;2023-04-01T08:16:42;2.45;;;1.08;;
22026;SDS011;11177;50.966;10.070;2023-04-01T08:19:15;4.75;;;1.20;;
22026;SDS011;11177;50.966;10.070;2023-04-01T08:22:40;6.18;;;1.17;;
22026;SDS011;11177;50.966;10.070;2023-04-01T08:25:10;3.45;;;1.45;;
22026;SDS011;11177;50.966;10.070;2023-04-01T08:27:44;4.45;;;0.93;;
22026;SDS011;11177;50.966;10.070;2023-04-01T08:30:17;4.15;;;1.00;;
22026;SDS011;11177;50.966;10.070;2023-04-01T08:32:56;9.87;;;1.73;;
22026;SDS011;11177;50.966;10.070;2023-04-01T08:35:31;3.65;;;1.30;;
22026;SDS011;11177;50.966;10.070;2023-04-01T08:38:10;4.00;;;1.00;;
22026;SDS011;11177;50.966;10.070;2023-04-01T08:40:58;5.22;;;1.00;;
22026;SDS011;11177;50.966;10.070;2023-04-01T08:49:31;7.75;;;0.85;;
22026;SDS011;11177;50.966;10.070;2023-04-01T08:52:22;4.37;;;1.00;;
22026;SDS011;11177;50.966;10.070;2023-04-01T08:59:00;5.32;;;1.20;;
22026;SDS011;11177;50.966;10.070;2023-04-01T09:04:21;2.53;;;0.90;;
22026;SDS011;11177;50.966;10.070;2023-04-01T09:06:57;2.25;;;0.80;;
22026;SDS011;11177;50.966;10.070;2023-04-01T09:09:40;3.95;;;1.23;;
22026;SDS011;11177;50.966;10.070;2023-04-01T09:12:40;2.72;;;0.60;;
22026;SDS011;11177;50.966;10.070;2023-04-01T09:18:21;2.10;;;0.52;;
22026;SDS011;11177;50.966;10.070;2023-04-01T09:21:04;1.70;;;0.75;;
22026;SDS011;11177;50.966;10.070;2023-04-01T09:24:12;1.75;;;0.60;;
22026;SDS011;11177;50.966;10.070;2023-04-01T09:27:02;2.47;;;0.70;;
22026;SDS011;11177;50.966;10.070;2023-04-01T09:29:35;2.45;;;0.55;;
22026;SDS011;11177;50.966;10.070;2023-04-01T09:38:57;3.58;;;0.70;;
22026;SDS011;11177;50.966;10.070;2023-04-01T09:41:31;1.20;;;0.60;;
22026;SDS011;11177;50.966;10.070;2023-04-01T09:44:11;2.53;;;0.63;;
22026;SDS011;11177;50.966;10.070;2023-04-01T09:46:54;1.35;;;0.65;;
22026;SDS011;11177;50.966;10.070;2023-04-01T09:49:37;3.53;;;0.70;;
22026;SDS011;11177;50.966;10.070;2023-04-01T09:55:56;0.70;;;0.43;;
22026;SDS011;11177;50.966;10.070;2023-04-01T10:01:44;1.27;;;0.60;;
22026;SDS011;11177;50.966;10.070;2023-04-01T10:07:30;1.50;;;0.50;;
22026;SDS011;11177;50.966;10.070;2023-04-01T10:13:48;1.55;;;0.80;;
22026;SDS011;11177;50.966;10.070;2023-04-01T10:20:22;2.83;;;0.70;;
22026;SDS011;11177;50.966;10.070;2023-04-01T11:20:02;1.60;;;0.88;;
22026;SDS011;11177;50.966;10.070;2023-04-01T11:28:17;1.90;;;1.20;;
22026;SDS011;11177;50.966;10.070;2023-04-01T11:31:21;2.55;;;1.10;;
22026;SDS011;11177;50.966;10.070;2023-04-01T11:34:28;2.60;;;1.00;;
22026;SDS011;11177;50.966;10.070;2023-04-01T11:40:16;3.45;;;1.30;;
22026;SDS011;11177;50.966;10.070;2023-04-01T11:42:57;4.88;;;1.50;;
22026;SDS011;11177;50.966;10.070;2023-04-01T11:46:21;1.17;;;0.90;;
22026;SDS011;11177;50.966;10.070;2023-04-01T11:52:15;1.15;;;0.88;;
22026;SDS011;11177;50.966;10.070;2023-04-01T11:58:05;3.65;;;1.40;;
22026;SDS011;11177;50.966;10.070;2023-04-01T12:05:15;1.73;;;0.70;;
22026;SDS011;11177;50.966;10.070;2023-04-01T12:10:02;1.00;;;0.52;;
22026;SDS011;11177;50.966;10.070;2023-04-01T12:18:57;3.30;;;0.75;;
22026;SDS011;11177;50.966;10.070;2023-04-01T12:21:32;5.90;;;1.00;;
22026;SDS011;11177;50.966;10.070;2023-04-01T12:26:56;1.27;;;0.47;;
22026;SDS011;11177;50.966;10.070;2023-04-01T12:30:42;1.50;;;0.47;;
22026;SDS011;11177;50.966;10.070;2023-04-01T12:33:36;0.68;;;0.40;;
22026;SDS011;11177;50.966;10.070;2023-04-01T12:35:56;2.03;;;1.17;;
22026;SDS011;11177;50.966;10.070;2023-04-01T12:42:04;4.10;;;0.73;;
22026;SDS011;11177;50.966;10.070;2023-04-01T12:48:08;1.48;;;0.75;;
22026;SDS011;11177;50.966;10.070;2023-04-01T12:57:17;2.92;;;0.90;;
22026;SDS011;11177;50.966;10.070;2023-04-01T13:00:11;2.60;;;1.10;;
22026;SDS011;11177;50.966;10.070;2023-04-01T13:05:53;1.25;;;0.93;;
22026;SDS011;11177;50.966;10.070;2023-04-01T13:08:37;3.33;;;1.20;;
22026;SDS011;11177;50.966;10.070;2023-04-01T13:15:10;0.85;;;0.50;;
22026;SDS011;11177;50.966;10.070;2023-04-01T13:17:48;3.78;;;0.70;;
22026;SDS011;11177;50.966;10.070;2023-04-01T13:20:49;1.03;;;0.50;;
22026;SDS011;11177;50.966;10.070;2023-04-01T13:29:25;1.00;;;0.60;;
22026;SDS011;11177;50.966;10.070;2023-04-01T13:35:12;1.52;;;1.00;;
22026;SDS011;11177;50.966;10.070;2023-04-01T13:38:48;0.73;;;0.60;;
22026;SDS011;11177;50.966;10.070;2023-04-01T13:41:46;5.63;;;1.10;;
22026;SDS011;11177;50.966;10.070;2023-04-01T13:57:14;1.80;;;0.80;;
22026;SDS011;11177;50.966;10.070;2023-04-01T14:03:03;5.20;;;1.15;;
22026;SDS011;11177;50.966;10.070;2023-04-01T14:05:49;2.85;;;1.23;;
22026;SDS011;11177;50.966;10.070;2023-04-01T14:08:26;1.92;;;0.73;;
22026;SDS011;11177;50.966;10.070;2023-04-01T14:11:17;1.50;;;0.98;;
22026;SDS011;11177;50.966;10.070;2023-04-01T14:17:12;2.47;;;1.00;;
22026;SDS011;11177;50.966;10.070;2023-04-01T14:20:14;2.38;;;0.98;;
22026;SDS011;11177;50.966;10.070;2023-04-01T14:22:43;2.58;;;1.40;;
22026;SDS011;11177;50.966;10.070;2023-04-01T14:28:49;2.08;;;0.70;;
22026;SDS011;11177;50.966;10.070;2023-04-01T14:31:34;0.97;;;0.60;;
22026;SDS011;11177;50.966;10.070;2023-04-01T14:34:21;3.10;;;0.70;;
22026;SDS011;11177;50.966;10.070;2023-04-01T14:37:15;2.20;;;1.10;;
22026;SDS011;11177;50.966;10.070;2023-04-01T14:40:00;0.90;;;0.70;;
22026;SDS011;11177;50.966;10.070;2023-04-01T14:42:45;0.80;;;0.73;;
22026;SDS011;11177;50.966;10.070;2023-04-01T14:48:49;0.50;;;0.50;;
22026;SDS011;11177;50.966;10.070;2023-04-01T14:51:51;3.00;;;0.70;;
22026;SDS011;11177;50.966;10.070;2023-04-01T14:54:35;1.17;;;0.52;;
22026;SDS011;11177;50.966;10.070;2023-04-01T14:59:45;1.67;;;1.10;;
22026;SDS011;11177;50.966;10.070;2023-04-01T15:02:26;1.73;;;0.77;;
22026;SDS011;11177;50.966;10.070;2023-04-01T15:08:05;0.65;;;0.60;;
22026;SDS011;11177;50.966;10.070;2023-04-01T15:10:53;0.73;;;0.60;;
22026;SDS011;11177;50.966;10.070;2023-04-01T15:13:42;1.88;;;1.15;;
22026;SDS011;11177;50.966;10.070;2023-04-01T15:22:43;1.03;;;0.57;;
22026;SDS011;11177;50.966;10.070;2023-04-01T15:25:18;2.67;;;0.77;;
22026;SDS011;11177;50.966;10.070;2023-04-01T15:29:17;1.58;;;0.70;;
22026;SDS011;11177;50.966;10.070;2023-04-01T15:30:48;1.33;;;1.20;;
22026;SDS011;11177;50.966;10.070;2023-04-01T15:37:00;5.93;;;3.25;;
22026;SDS011;11177;50.966;10.070;2023-04-01T15:39:39;5.43;;;2.72;;
22026;SDS011;11177;50.966;10.070;2023-04-01T15:42:18;4.32;;;2.10;;
22026;SDS011;11177;50.966;10.070;2023-04-01T15:44:59;4.50;;;1.40;;
22026;SDS011;11177;50.966;10.070;2023-04-01T15:48:06;2.17;;;1.40;;
22026;SDS011;11177;50.966;10.070;2023-04-01T15:50:45;2.63;;;1.63;;
22026;SDS011;11177;50.966;10.070;2023-04-01T15:54:02;5.85;;;2.20;;
22026;SDS011;11177;50.966;10.070;2023-04-01T15:56:25;3.38;;;2.10;;
22026;SDS011;11177;50.966;10.070;2023-04-01T15:59:06;3.47;;;1.90;;
22026;SDS011;11177;50.966;10.070;2023-04-01T16:01:57;3.25;;;2.20;;
22026;SDS011;11177;50.966;10.070;2023-04-01T16:04:31;2.75;;;1.98;;
22026;SDS011;11177;50.966;10.070;2023-04-01T16:07:24;2.00;;;1.67;;
22026;SDS011;11177;50.966;10.070;2023-04-01T16:10:19;1.55;;;1.13;;
22026;SDS011;11177;50.966;10.070;2023-04-01T16:13:03;1.98;;;1.27;;
22026;SDS011;11177;50.966;10.070;2023-04-01T16:16:09;3.10;;;1.98;;
22026;SDS011;11177;50.966;10.070;2023-04-01T16:21:48;5.90;;;3.65;;
22026;SDS011;11177;50.966;10.070;2023-04-01T16:24:22;4.80;;;3.42;;
22026;SDS011;11177;50.966;10.070;2023-04-01T16:26:59;21.08;;;6.03;;
22026;SDS011;11177;50.966;10.070;2023-04-01T16:29:33;5.78;;;3.15;;
22026;SDS011;11177;50.966;10.070;2023-04-01T16:35:28;2.83;;;2.20;;
22026;SDS011;11177;50.966;10.070;2023-04-01T16:38:16;10.00;;;4.22;;
22026;SDS011;11177;50.966;10.070;2023-04-01T16:43:59;7.95;;;4.70;;
22026;SDS011;11177;50.966;10.070;2023-04-01T16:46:52;6.72;;;3.70;;
22026;SDS011;11177;50.966;10.070;2023-04-01T16:55:18;4.13;;;2.40;;
22026;SDS011;11177;50.966;10.070;2023-04-01T16:57:56;3.92;;;2.50;;
22026;SDS011;11177;50.966;10.070;2023-04-01T17:00:41;4.03;;;2.40;;
22026;SDS011;11177;50.966;10.070;2023-04-01T17:03:21;4.72;;;2.10;;
22026;SDS011;11177;50.966;10.070;2023-04-01T17:09:17;3.28;;;2.63;;
22026;SDS011;11177;50.966;10.070;2023-04-01T17:12:03;4.63;;;2.90;;
22026;SDS011;11177;50.966;10.070;2023-04-01T17:17:27;7.85;;;3.78;;
22026;SDS011;11177;50.966;10.070;2023-04-01T17:23:30;4.95;;;2.33;;
22026;SDS011;11177;50.966;10.070;2023-04-01T17:26:06;3.38;;;2.17;;
22026;SDS011;11177;50.966;10.070;2023-04-01T17:28:57;2.85;;;1.95;;
22026;SDS011;11177;50.966;10.070;2023-04-01T17:37:30;3.92;;;3.22;;
22026;SDS011;11177;50.966;10.070;2023-04-01T17:40:41;5.47;;;3.80;;
22026;SDS011;11177;50.966;10.070;2023-04-01T17:49:21;4.38;;;3.63;;
22026;SDS011;11177;50.966;10.070;2023-04-01T17:52:06;4.32;;;3.35;;
22026;SDS011;11177;50.966;10.070;2023-04-01T17:54:52;4.32;;;3.45;;
22026;SDS011;11177;50.966;10.070;2023-04-01T17:57:29;7.72;;;5.20;;
22026;SDS011;11177;50.966;10.070;2023-04-01T18:00:23;10.27;;;5.22;;
22026;SDS011;11177;50.966;10.070;2023-04-01T18:09:16;8.57;;;5.07;;
22026;SDS011;11177;50.966;10.070;2023-04-01T18:15:21;6.40;;;3.20;;
22026;SDS011;11177;50.966;10.070;2023-04-01T18:24:29;4.00;;;3.28;;
22026;SDS011;11177;50.966;10.070;2023-04-01T18:30:01;8.38;;;5.00;;
22026;SDS011;11177;50.966;10.070;2023-04-01T18:32:44;7.70;;;5.38;;
22026;SDS011;11177;50.966;10.070;2023-04-01T18:38:15;19.42;;;12.90;;
22026;SDS011;11177;50.966;10.070;2023-04-01T18:47:16;25.00;;;17.27;;
22026;SDS011;11177;50.966;10.070;2023-04-01T18:52:42;32.22;;;23.92;;
22026;SDS011;11177;50.966;10.070;2023-04-01T18:55:29;17.88;;;12.90;;
22026;SDS011;11177;50.966;10.070;2023-04-01T18:58:05;9.40;;;7.95;;
22026;SDS011;11177;50.966;10.070;2023-04-01T19:00:39;10.23;;;7.82;;
22026;SDS011;11177;50.966;10.070;2023-04-01T19:03:15;10.02;;;7.85;;
22026;SDS011;11177;50.966;10.070;2023-04-01T19:05:49;8.85;;;6.90;;
22026;SDS011;11177;50.966;10.070;2023-04-01T19:08:26;9.30;;;6.30;;
22026;SDS011;11177;50.966;10.070;2023-04-01T19:10:59;6.80;;;5.60;;
22026;SDS011;11177;50.966;10.070;2023-04-01T19:16:49;6.28;;;4.95;;
22026;SDS011;11177;50.966;10.070;2023-04-01T19:22:03;9.00;;;5.35;;
22026;SDS011;11177;50.966;10.070;2023-04-01T19:24:58;9.18;;;6.63;;
22026;SDS011;11177;50.966;10.070;2023-04-01T19:30:54;6.72;;;5.20;;
22026;SDS011;11177;50.966;10.070;2023-04-01T19:33:29;6.13;;;4.57;;
22026;SDS011;11177;50.966;10.070;2023-04-01T19:48:35;8.63;;;6.18;;
22026;SDS011;11177;50.966;10.070;2023-04-01T19:51:21;10.30;;;5.45;;
22026;SDS011;11177;50.966;10.070;2023-04-01T19:53:54;8.25;;;4.90;;
22026;SDS011;11177;50.966;10.070;2023-04-01T19:56:30;53.38;;;30.50;;
22026;SDS011;11177;50.966;10.070;2023-04-01T19:59:02;40.25;;;22.98;;
22026;SDS011;11177;50.966;10.070;2023-04-01T20:01:44;19.98;;;13.73;;
22026;SDS011;11177;50.966;10.070;2023-04-01T20:05:21;6.35;;;4.03;;
22026;SDS011;11177;50.966;10.070;2023-04-01T20:07:20;3.58;;;2.67;;
22026;SDS011;11177;50.966;10.070;2023-04-01T20:09:57;2.15;;;1.95;;
22026;SDS011;11177;50.966;10.070;2023-04-01T20:12:54;2.97;;;1.63;;
22026;SDS011;11177;50.966;10.070;2023-04-01T20:15:59;1.70;;;1.60;;
22026;SDS011;11177;50.966;10.070;2023-04-01T20:21:41;2.67;;;1.50;;
22026;SDS011;11177;50.966;10.070;2023-04-01T20:24:17;1.90;;;1.52;;
22026;SDS011;11177;50.966;10.070;2023-04-01T20:27:23;2.88;;;1.30;;
22026;SDS011;11177;50.966;10.070;2023-04-01T20:29:55;1.73;;;1.17;;
22026;SDS011;11177;50.966;10.070;2023-04-01T20:32:40;3.00;;;2.55;;
22026;SDS011;11177;50.966;10.070;2023-04-01T20:38:53;1.47;;;1.37;;
22026;SDS011;11177;50.966;10.070;2023-04-01T20:41:34;1.17;;;1.05;;
22026;SDS011;11177;50.966;10.070;2023-04-01T20:44:12;3.13;;;1.42;;
22026;SDS011;11177;50.966;10.070;2023-04-01T20:46:53;2.03;;;1.80;;
22026;SDS011;11177;50.966;10.070;2023-04-01T20:49:30;3.13;;;2.05;;
22026;SDS011;11177;50.966;10.070;2023-04-01T20:55:07;4.35;;;3.00;;
22026;SDS011;11177;50.966;10.070;2023-04-01T21:07:01;3.58;;;1.90;;
22026;SDS011;11177;50.966;10.070;2023-04-01T21:09:38;3.72;;;2.30;;
22026;SDS011;11177;50.966;10.070;2023-04-01T21:12:17;4.50;;;2.40;;
22026;SDS011;11177;50.966;10.070;2023-04-01T21:14:54;2.70;;;2.50;;
22026;SDS011;11177;50.966;10.070;2023-04-01T21:20:29;3.95;;;3.10;;
22026;SDS011;11177;50.966;10.070;2023-04-01T21:23:22;4.30;;;3.35;;
22026;SDS011;11177;50.966;10.070;2023-04-01T21:26:31;4.65;;;3.17;;
22026;SDS011;11177;50.966;10.070;2023-04-01T21:29:47;2.67;;;1.88;;
22026;SDS011;11177;50.966;10.070;2023-04-01T21:57:24;4.00;;;2.85;;
22026;SDS011;11177;50.966;10.070;2023-04-01T22:00:13;6.65;;;2.80;;
22026;SDS011;11177;50.966;10.070;2023-04-01T22:06:49;5.45;;;1.50;;
22026;SDS011;11177;50.966;10.070;2023-04-01T22:09:38;3.70;;;2.70;;
22026;SDS011;11177;50.966;10.070;2023-04-01T22:18:03;2.17;;;1.75;;
22026;SDS011;11177;50.966;10.070;2023-04-01T22:20:36;4.53;;;1.92;;
22026;SDS011;11177;50.966;10.070;2023-04-01T22:23:24;4.05;;;1.40;;
22026;SDS011;11177;50.966;10.070;2023-04-01T22:26:05;2.40;;;1.30;;